Time;durP1;ratioP1;P1;durP2;ratioP2;P2;SDS_P1;SDS_P2;PMS_P1;PMS_P2;Temp;Humidity;BMP_temperature;BMP_pressure;BME280_temperature;BME280_humidity;BME280_pressure;Samples;Min_cycle;Max_cycle;Signal;HPM_P1;HPM_P2
2021/10/29 00:02:23;;;;;;;5.68;3.42;;;;;;;;;;5021715;28;20478;-93
2021/10/29 00:04:49;;;;;;;8.63;3.60;;;;;;;;;;5063478;28;20032;-92
2021/10/29 00:07:14;;;;;;;6.45;3.30;;;;;;;;;;5033817;28;20104;-93
2021/10/29 00:09:39;;;;;;;9.73;4.40;;;;;;;;;;5065812;28;20017;-93
2021/10/29 00:12:05;;;;;;;7.65;3.65;;;;;;;;;;5032681;28;20029;-93
2021/10/29 00:14:31;;;;;;;13.32;3.80;;;;;;;;;;5066068;28;20057;-92
2021/10/29 00:16:57;;;;;;;8.25;3.88;;;;;;;;;;5032590;28;20474;-92
2021/10/29 00:19:22;;;;;;;8.95;3.38;;;;;;;;;;5032703;28;20026;-93
2021/10/29 00:21:48;;;;;;;6.65;3.70;;;;;;;;;;5032464;28;20044;-93
2021/10/29 00:24:13;;;;;;;7.68;4.20;;;;;;;;;;5066010;28;20473;-92
2021/10/29 00:26:38;;;;;;;8.45;4.25;;;;;;;;;;5060850;28;20075;-93
2021/10/29 00:29:03;;;;;;;6.22;3.15;;;;;;;;;;5065926;28;20022;-93
2021/10/29 00:31:28;;;;;;;7.88;4.05;;;;;;;;;;5032508;28;20108;-92
2021/10/29 00:33:55;;;;;;;6.72;3.92;;;;;;;;;;5032374;28;20013;-92
2021/10/29 00:36:20;;;;;;;11.30;4.20;;;;;;;;;;5032536;28;20112;-92
2021/10/29 00:38:45;;;;;;;6.68;4.07;;;;;;;;;;5032390;28;20121;-93
2021/10/29 00:41:10;;;;;;;6.28;3.45;;;;;;;;;;5032368;28;20025;-93
2021/10/29 00:43:36;;;;;;;8.68;4.38;;;;;;;;;;5067265;28;20025;-93
2021/10/29 00:46:01;;;;;;;5.20;3.08;;;;;;;;;;5037007;28;20034;-92
2021/10/29 00:48:26;;;;;;;8.23;3.28;;;;;;;;;;5069205;28;20037;-93
2021/10/29 00:50:51;;;;;;;10.90;3.58;;;;;;;;;;5069159;28;20052;-93
2021/10/29 00:53:17;;;;;;;11.88;3.35;;;;;;;;;;5035901;28;20024;-92
2021/10/29 00:55:42;;;;;;;11.32;4.85;;;;;;;;;;5035882;28;20102;-93
2021/10/29 00:58:07;;;;;;;7.70;4.03;;;;;;;;;;5035741;28;20021;-93
2021/10/29 01:00:33;;;;;;;7.43;3.65;;;;;;;;;;5035733;28;20071;-93
2021/10/29 01:02:58;;;;;;;12.77;4.05;;;;;;;;;;5035644;28;20022;-92
2021/10/29 01:05:24;;;;;;;7.38;4.03;;;;;;;;;;5035840;28;20028;-92
2021/10/29 01:07:49;;;;;;;10.30;4.32;;;;;;;;;;5035465;28;20027;-91
2021/10/29 01:10:14;;;;;;;10.60;3.90;;;;;;;;;;5035743;28;20469;-93
2021/10/29 01:12:40;;;;;;;10.80;4.03;;;;;;;;;;5035817;28;20395;-93
2021/10/29 01:15:05;;;;;;;5.95;3.25;;;;;;;;;;5068661;28;20022;-92
2021/10/29 01:17:30;;;;;;;7.78;3.78;;;;;;;;;;5035410;28;20048;-93
2021/10/29 01:19:56;;;;;;;10.65;4.47;;;;;;;;;;5067651;28;20021;-93
2021/10/29 01:22:23;;;;;;;5.70;3.38;;;;;;;;;;5035492;28;20170;-92
2021/10/29 01:24:48;;;;;;;7.90;4.05;;;;;;;;;;5035488;28;20476;-92
2021/10/29 01:27:14;;;;;;;8.52;3.97;;;;;;;;;;5035082;28;20071;-92
2021/10/29 01:29:40;;;;;;;8.40;3.53;;;;;;;;;;5068620;28;20191;-93
2021/10/29 01:32:06;;;;;;;9.57;3.72;;;;;;;;;;5035071;28;20022;-92
2021/10/29 01:34:32;;;;;;;8.82;3.65;;;;;;;;;;5035242;28;20017;-92
2021/10/29 01:36:58;;;;;;;6.70;3.58;;;;;;;;;;5068264;28;20027;-93
2021/10/29 01:39:23;;;;;;;6.90;3.78;;;;;;;;;;5034974;28;20021;-92
2021/10/29 01:41:48;;;;;;;6.72;3.45;;;;;;;;;;5035183;28;20063;-92
2021/10/29 01:44:13;;;;;;;6.20;3.58;;;;;;;;;;5034803;28;20051;-93
2021/10/29 01:46:40;;;;;;;5.90;3.22;;;;;;;;;;5028650;28;20471;-92
2021/10/29 01:49:05;;;;;;;6.15;3.20;;;;;;;;;;5034800;28;20117;-92
2021/10/29 01:51:30;;;;;;;8.48;3.85;;;;;;;;;;5035610;28;20052;-93
2021/10/29 01:53:56;;;;;;;5.65;3.53;;;;;;;;;;5067996;28;20029;-93
2021/10/29 01:56:21;;;;;;;9.10;3.22;;;;;;;;;;5033542;28;20009;-93
2021/10/29 01:58:46;;;;;;;10.10;3.42;;;;;;;;;;5034510;28;20023;-93
2021/10/29 02:01:12;;;;;;;7.82;3.90;;;;;;;;;;5067871;28;20021;-93
2021/10/29 02:03:37;;;;;;;7.13;3.78;;;;;;;;;;5031249;28;20049;-93
2021/10/29 02:06:03;;;;;;;7.72;3.40;;;;;;;;;;5031301;28;20022;-93
2021/10/29 02:08:28;;;;;;;9.77;3.42;;;;;;;;;;5032682;28;20100;-92
2021/10/29 02:10:53;;;;;;;6.88;3.72;;;;;;;;;;5066272;28;20025;-92
2021/10/29 02:13:19;;;;;;;5.95;3.05;;;;;;;;;;5033291;28;20413;-92
2021/10/29 02:15:44;;;;;;;7.88;3.67;;;;;;;;;;5034373;28;20067;-93
2021/10/29 02:18:10;;;;;;;10.13;4.03;;;;;;;;;;5059701;28;20485;-93
2021/10/29 02:20:35;;;;;;;9.55;3.70;;;;;;;;;;5067306;28;20068;-92
2021/10/29 02:23:01;;;;;;;9.75;3.53;;;;;;;;;;5034276;28;20084;-93
2021/10/29 02:25:26;;;;;;;5.57;3.08;;;;;;;;;;5067214;28;20024;-93
2021/10/29 02:27:51;;;;;;;7.15;3.63;;;;;;;;;;5034046;28;20017;-93
2021/10/29 02:30:16;;;;;;;6.00;2.88;;;;;;;;;;5034024;28;20462;-93
2021/10/29 02:32:41;;;;;;;6.65;3.45;;;;;;;;;;5067346;28;20064;-92
2021/10/29 02:35:07;;;;;;;5.13;3.20;;;;;;;;;;5030727;28;20080;-93
2021/10/29 02:37:32;;;;;;;9.05;3.92;;;;;;;;;;5033129;28;20075;-92
2021/10/29 02:39:57;;;;;;;6.05;2.72;;;;;;;;;;5033839;28;20075;-93
2021/10/29 02:42:23;;;;;;;9.95;3.88;;;;;;;;;;5066879;28;20010;-92
2021/10/29 02:44:48;;;;;;;6.75;3.17;;;;;;;;;;5033885;28;20469;-92
2021/10/29 02:47:13;;;;;;;7.90;3.85;;;;;;;;;;5033486;28;20112;-93
2021/10/29 02:49:38;;;;;;;6.05;3.60;;;;;;;;;;5030368;28;20114;-93
2021/10/29 02:52:04;;;;;;;5.80;3.60;;;;;;;;;;5027672;28;20021;-93
2021/10/29 02:54:30;;;;;;;7.05;3.25;;;;;;;;;;5030239;28;20063;-92
2021/10/29 02:56:55;;;;;;;6.00;3.58;;;;;;;;;;5033600;28;20018;-93
2021/10/29 02:59:20;;;;;;;7.20;3.70;;;;;;;;;;5066690;28;20100;-93
2021/10/29 03:01:45;;;;;;;10.10;3.63;;;;;;;;;;5032688;28;20024;-92
2021/10/29 03:04:11;;;;;;;6.85;3.45;;;;;;;;;;5033486;28;20021;-93
2021/10/29 03:06:36;;;;;;;8.68;3.72;;;;;;;;;;5033371;28;20392;-92
2021/10/29 03:09:02;;;;;;;6.18;3.05;;;;;;;;;;5066838;28;20067;-92
2021/10/29 03:11:27;;;;;;;6.97;3.60;;;;;;;;;;5033415;28;20010;-93
2021/10/29 03:13:52;;;;;;;6.13;3.28;;;;;;;;;;5066632;28;20016;-93
2021/10/29 03:16:18;;;;;;;6.38;3.15;;;;;;;;;;5052539;28;20536;-93
2021/10/29 03:18:43;;;;;;;5.72;3.17;;;;;;;;;;5065766;28;20017;-93
2021/10/29 03:21:09;;;;;;;6.80;3.85;;;;;;;;;;5029783;28;20550;-92
2021/10/29 03:23:35;;;;;;;10.20;3.45;;;;;;;;;;5033162;28;20025;-93
2021/10/29 03:26:00;;;;;;;6.13;3.30;;;;;;;;;;5066467;28;20029;-92
2021/10/29 03:28:26;;;;;;;7.40;3.70;;;;;;;;;;5066280;28;20155;-93
2021/10/29 03:30:51;;;;;;;9.13;3.13;;;;;;;;;;5033187;28;20478;-93
2021/10/29 03:33:16;;;;;;;6.63;3.33;;;;;;;;;;5033382;28;20025;-93
2021/10/29 03:35:42;;;;;;;14.05;4.03;;;;;;;;;;5066451;28;20017;-92
2021/10/29 03:45:51;;;;;;;6.13;3.28;;;;;;;;;;5034297;28;20021;-92
2021/10/29 03:48:19;;;;;;;9.13;3.50;;;;;;;;;;5032728;28;20021;-93
2021/10/29 03:51:12;;;;;;;5.70;3.45;;;;;;;;;;5032840;28;20009;-92
2021/10/29 03:54:23;;;;;;;11.80;3.75;;;;;;;;;;5032846;28;20021;-92
2021/10/29 03:56:27;;;;;;;10.45;4.05;;;;;;;;;;5024554;28;20025;-93
2021/10/29 03:58:54;;;;;;;8.18;3.65;;;;;;;;;;5033165;28;20069;-92
2021/10/29 04:01:20;;;;;;;10.85;3.75;;;;;;;;;;5065920;28;20018;-92
2021/10/29 04:03:45;;;;;;;6.03;3.45;;;;;;;;;;5032959;28;20523;-93
2021/10/29 04:06:11;;;;;;;9.68;4.20;;;;;;;;;;5065233;28;20029;-92
2021/10/29 04:08:37;;;;;;;7.50;3.47;;;;;;;;;;5058578;28;20026;-92
2021/10/29 04:11:02;;;;;;;6.10;3.20;;;;;;;;;;5026889;28;20017;-93
2021/10/29 04:13:33;;;;;;;12.65;3.72;;;;;;;;;;5033926;28;20009;-93
2021/10/29 04:15:59;;;;;;;7.65;3.70;;;;;;;;;;5066110;28;20029;-92
2021/10/29 04:18:26;;;;;;;6.95;4.00;;;;;;;;;;5030612;28;20466;-93
2021/10/29 04:20:51;;;;;;;12.18;4.43;;;;;;;;;;5028451;28;20540;-92
2021/10/29 04:23:17;;;;;;;6.95;3.85;;;;;;;;;;5069628;28;20061;-93
2021/10/29 04:25:42;;;;;;;9.93;3.80;;;;;;;;;;5037765;28;20345;-92
2021/10/29 04:28:10;;;;;;;7.35;3.40;;;;;;;;;;5069458;28;20080;-93
2021/10/29 04:30:36;;;;;;;9.30;3.30;;;;;;;;;;5036358;28;20104;-92
2021/10/29 04:33:07;;;;;;;6.50;3.00;;;;;;;;;;5036320;28;20033;-92
2021/10/29 04:35:33;;;;;;;10.60;3.40;;;;;;;;;;5037095;28;20097;-93
2021/10/29 04:37:59;;;;;;;5.95;3.33;;;;;;;;;;5036143;28;20312;-92
2021/10/29 04:40:24;;;;;;;15.68;3.72;;;;;;;;;;5036045;28;20017;-92
2021/10/29 04:42:49;;;;;;;6.30;3.22;;;;;;;;;;5036295;28;20511;-92
2021/10/29 04:45:15;;;;;;;9.18;2.75;;;;;;;;;;5069280;28;20048;-93
2021/10/29 04:47:41;;;;;;;8.45;3.63;;;;;;;;;;5035865;28;20017;-93
2021/10/29 04:50:06;;;;;;;9.68;3.55;;;;;;;;;;5036049;28;20401;-92
2021/10/29 04:52:31;;;;;;;6.80;3.95;;;;;;;;;;5035736;28;20465;-92
2021/10/29 04:54:57;;;;;;;6.53;3.22;;;;;;;;;;5036053;28;20021;-93
2021/10/29 04:57:22;;;;;;;10.48;3.83;;;;;;;;;;5036299;28;20109;-91
2021/10/29 04:59:47;;;;;;;9.75;3.45;;;;;;;;;;5035660;28;20013;-92
2021/10/29 05:02:13;;;;;;;6.07;3.30;;;;;;;;;;5068344;28;20060;-93
2021/10/29 05:04:38;;;;;;;6.95;3.65;;;;;;;;;;5068899;28;20109;-93
2021/10/29 05:07:03;;;;;;;13.95;3.22;;;;;;;;;;5032400;28;20386;-92
2021/10/29 05:09:29;;;;;;;7.43;3.55;;;;;;;;;;5035546;28;20540;-92
2021/10/29 05:11:54;;;;;;;9.95;3.40;;;;;;;;;;5069248;28;20025;-92
2021/10/29 05:14:19;;;;;;;6.22;2.80;;;;;;;;;;5035545;28;20392;-93
2021/10/29 05:16:44;;;;;;;4.15;2.22;;;;;;;;;;5035540;28;20014;-92
2021/10/29 05:19:10;;;;;;;6.93;2.60;;;;;;;;;;5068818;28;20032;-93
2021/10/29 05:21:35;;;;;;;6.60;1.73;;;;;;;;;;5068583;28;20029;-92
2021/10/29 05:24:00;;;;;;;7.03;3.70;;;;;;;;;;5068703;28;20120;-93
2021/10/29 05:26:25;;;;;;;12.75;3.63;;;;;;;;;;5068523;28;20060;-93
2021/10/29 05:28:50;;;;;;;6.55;3.45;;;;;;;;;;5035113;28;20388;-93
2021/10/29 05:31:16;;;;;;;7.00;3.42;;;;;;;;;;5034770;28;20072;-93
2021/10/29 05:33:41;;;;;;;9.35;2.38;;;;;;;;;;5035674;28;20014;-92
2021/10/29 05:36:07;;;;;;;7.30;3.25;;;;;;;;;;5035284;28;20105;-92
2021/10/29 05:38:32;;;;;;;2.13;0.88;;;;;;;;;;5068409;28;20051;-93
2021/10/29 05:41:00;;;;;;;4.38;2.75;;;;;;;;;;5068430;28;20013;-92
2021/10/29 05:43:25;;;;;;;6.60;2.53;;;;;;;;;;5034662;28;20543;-93
2021/10/29 05:45:51;;;;;;;8.63;3.05;;;;;;;;;;5035167;28;20021;-93
2021/10/29 05:48:16;;;;;;;7.43;3.30;;;;;;;;;;5074460;28;20695;-92
2021/10/29 05:50:48;;;;;;;8.43;3.15;;;;;;;;;;5036142;28;20499;-92
2021/10/29 05:53:20;;;;;;;11.85;3.53;;;;;;;;;;5068090;28;20032;-93
2021/10/29 05:55:46;;;;;;;5.38;3.38;;;;;;;;;;5030808;28;20075;-93
2021/10/29 05:58:11;;;;;;;8.77;3.38;;;;;;;;;;5034243;28;20469;-92
2021/10/29 06:00:36;;;;;;;7.93;3.70;;;;;;;;;;5026660;28;20026;-92
2021/10/29 06:03:03;;;;;;;6.57;3.05;;;;;;;;;;5034297;28;20025;-93
2021/10/29 06:05:29;;;;;;;7.32;3.25;;;;;;;;;;5068030;28;20108;-92
2021/10/29 06:07:54;;;;;;;8.52;3.35;;;;;;;;;;5034591;28;20529;-92
2021/10/29 06:10:20;;;;;;;9.07;3.40;;;;;;;;;;5067599;28;20079;-92
2021/10/29 06:12:45;;;;;;;7.05;3.55;;;;;;;;;;5034210;28;20108;-93
2021/10/29 06:15:13;;;;;;;8.20;3.38;;;;;;;;;;5034439;28;20057;-93
2021/10/29 06:17:38;;;;;;;8.23;3.33;;;;;;;;;;5067394;28;20485;-93
2021/10/29 06:20:04;;;;;;;9.70;3.08;;;;;;;;;;5031089;28;20076;-93
2021/10/29 06:22:33;;;;;;;14.63;3.63;;;;;;;;;;5024707;28;20021;-93
2021/10/29 06:25:07;;;;;;;8.35;3.25;;;;;;;;;;5067309;28;20067;-94
2021/10/29 06:30:01;;;;;;;8.85;3.35;;;;;;;;;;5039068;28;20029;-93
2021/10/29 06:32:26;;;;;;;6.60;3.17;;;;;;;;;;5034109;28;20025;-93
2021/10/29 06:34:52;;;;;;;5.22;3.42;;;;;;;;;;5033995;28;20028;-92
2021/10/29 06:37:17;;;;;;;9.13;3.47;;;;;;;;;;5034914;28;20018;-94
2021/10/29 06:39:45;;;;;;;6.57;3.30;;;;;;;;;;5033829;28;20017;-93
2021/10/29 06:42:15;;;;;;;12.48;3.88;;;;;;;;;;5033361;28;20028;-94
2021/10/29 06:47:41;;;;;;;4.50;2.38;;;;;;;;;;5035157;28;20075;-93
2021/10/29 06:59:12;;;;;;;8.38;3.53;;;;;;;;;;5034942;28;20017;-93
2021/10/29 07:00:50;;;;;;;7.07;3.42;;;;;;;;;;5035042;28;20481;-93
2021/10/29 07:11:41;;;;;;;8.30;3.28;;;;;;;;;;5021654;28;20038;-93
2021/10/29 07:41:36;;;;;;;8.80;3.42;;;;;;;;;;5034711;28;20021;-93
2021/10/29 07:44:05;;;;;;;9.80;3.80;;;;;;;;;;5027474;28;20022;-93
2021/10/29 07:46:30;;;;;;;6.63;3.13;;;;;;;;;;5026312;28;20131;-93
2021/10/29 07:48:56;;;;;;;10.93;3.42;;;;;;;;;;5032771;28;20477;-94
2021/10/29 07:51:21;;;;;;;8.23;3.30;;;;;;;;;;5033930;28;20018;-93
2021/10/29 07:53:46;;;;;;;9.20;3.75;;;;;;;;;;5068174;28;20022;-93
2021/10/29 07:56:12;;;;;;;7.82;3.78;;;;;;;;;;5069758;28;20025;-93
2021/10/29 07:58:37;;;;;;;8.90;3.33;;;;;;;;;;5036790;28;20096;-94
2021/10/29 08:01:03;;;;;;;10.82;3.00;;;;;;;;;;5035144;28;20017;-93
2021/10/29 08:03:28;;;;;;;8.18;3.75;;;;;;;;;;5021501;28;20026;-94
2021/10/29 08:05:54;;;;;;;5.60;2.45;;;;;;;;;;5036707;28;20477;-93
2021/10/29 08:08:19;;;;;;;8.75;3.33;;;;;;;;;;5037745;28;20475;-93
2021/10/29 08:10:45;;;;;;;8.98;3.28;;;;;;;;;;5036743;28;20053;-93
2021/10/29 08:13:11;;;;;;;6.90;3.53;;;;;;;;;;5036616;28;20018;-93
2021/10/29 08:15:37;;;;;;;5.57;2.35;;;;;;;;;;5027189;28;20021;-93
2021/10/29 08:18:05;;;;;;;7.55;3.53;;;;;;;;;;5032298;28;20025;-93
2021/10/29 08:20:30;;;;;;;3.30;1.02;;;;;;;;;;5037519;28;20061;-93
2021/10/29 08:22:56;;;;;;;5.40;2.80;;;;;;;;;;5070013;28;20018;-94
2021/10/29 08:25:21;;;;;;;5.95;2.92;;;;;;;;;;5036411;28;20108;-93
2021/10/29 08:27:46;;;;;;;8.27;3.05;;;;;;;;;;5036234;28;20017;-93
2021/10/29 08:30:12;;;;;;;5.70;2.60;;;;;;;;;;5069778;28;20024;-94
2021/10/29 08:32:38;;;;;;;10.32;2.97;;;;;;;;;;5037531;28;20096;-93
2021/10/29 08:35:05;;;;;;;8.52;3.10;;;;;;;;;;5037332;28;20032;-93
2021/10/29 08:37:31;;;;;;;5.57;3.25;;;;;;;;;;5036263;28;20045;-94
2021/10/29 08:39:57;;;;;;;5.72;2.40;;;;;;;;;;5063119;28;20461;-93
2021/10/29 08:42:23;;;;;;;4.22;2.03;;;;;;;;;;5038896;28;20025;-93
2021/10/29 08:44:49;;;;;;;6.07;3.22;;;;;;;;;;5037259;28;20028;-93
2021/10/29 08:47:20;;;;;;;3.13;1.45;;;;;;;;;;5033053;28;20010;-94
2021/10/29 08:49:46;;;;;;;6.80;3.23;;;;;;;;;;5036058;28;20018;-94
2021/10/29 08:52:13;;;;;;;6.85;2.38;;;;;;;;;;5035943;28;20439;-93
2021/10/29 08:54:39;;;;;;;5.35;2.00;;;;;;;;;;5069172;28;20018;-93
2021/10/29 08:57:04;;;;;;;4.97;2.45;;;;;;;;;;5069182;28;20461;-93
2021/10/29 08:59:33;;;;;;;5.78;2.88;;;;;;;;;;5035796;28;20087;-94
2021/10/29 09:04:37;;;;;;;6.95;2.53;;;;;;;;;;5036799;28;20025;-93
2021/10/29 09:07:17;;;;;;;5.22;2.67;;;;;;;;;;5035641;28;20071;-93
2021/10/29 09:32:00;;;;;;;3.75;2.30;;;;;;;;;;5036566;28;20028;-92
2021/10/29 09:34:25;;;;;;;2.95;1.85;;;;;;;;;;5068483;28;20024;-94
2021/10/29 09:36:51;;;;;;;1.05;0.40;;;;;;;;;;5073371;28;20022;-93
2021/10/29 09:39:18;;;;;;;6.65;2.58;;;;;;;;;;5035061;28;20024;-93
2021/10/29 09:41:44;;;;;;;4.88;2.47;;;;;;;;;;5068296;28;20453;-93
2021/10/29 09:44:12;;;;;;;0.73;0.47;;;;;;;;;;5035252;28;20028;-94
2021/10/29 09:46:43;;;;;;;5.10;2.40;;;;;;;;;;5034731;28;20025;-93
2021/10/29 09:49:10;;;;;;;1.60;0.85;;;;;;;;;;5067998;28;20025;-95
2021/10/29 09:51:47;;;;;;;5.53;2.25;;;;;;;;;;5034754;28;20017;-94
2021/10/29 09:54:16;;;;;;;3.97;2.00;;;;;;;;;;5034689;28;20025;-93
2021/10/29 09:59:09;;;;;;;7.18;2.45;;;;;;;;;;5036126;28;20029;-93
2021/10/29 10:01:34;;;;;;;0.68;0.47;;;;;;;;;;5034801;28;20013;-93
2021/10/29 10:04:00;;;;;;;2.25;1.00;;;;;;;;;;5067842;28;20029;-94
2021/10/29 10:06:27;;;;;;;4.80;2.30;;;;;;;;;;5066031;28;20481;-94
2021/10/29 10:08:53;;;;;;;2.72;1.02;;;;;;;;;;5035621;28;20021;-94
2021/10/29 10:11:19;;;;;;;7.57;2.10;;;;;;;;;;5067698;28;20515;-94
2021/10/29 10:13:45;;;;;;;5.47;3.15;;;;;;;;;;5034396;28;20483;-94
2021/10/29 10:16:11;;;;;;;9.50;3.10;;;;;;;;;;5033814;28;20021;-94
2021/10/29 10:18:37;;;;;;;4.57;2.25;;;;;;;;;;5061389;28;20116;-93
2021/10/29 10:21:04;;;;;;;9.20;2.35;;;;;;;;;;5027393;28;20469;-93
2021/10/29 10:23:33;;;;;;;4.47;1.85;;;;;;;;;;5034221;28;20477;-93
2021/10/29 10:43:04;;;;;;;4.73;1.70;;;;;;;;;;5035423;28;20029;-93
2021/10/29 10:48:20;;;;;;;6.57;2.22;;;;;;;;;;5035085;28;20032;-94
2021/10/29 10:50:50;;;;;;;4.65;2.25;;;;;;;;;;5033690;28;20017;-93
2021/10/29 10:53:20;;;;;;;4.32;2.30;;;;;;;;;;5033733;28;20505;-94
2021/10/29 11:06:52;;;;;;;6.20;2.10;;;;;;;;;;5021422;28;20025;-94
2021/10/29 11:12:40;;;;;;;4.07;2.22;;;;;;;;;;4992890;28;20634;-93
2021/10/29 11:15:26;;;;;;;5.13;1.73;;;;;;;;;;4976838;28;20022;-94
2021/10/29 11:17:55;;;;;;;3.30;1.65;;;;;;;;;;5008748;28;20397;-95
2021/10/29 11:20:37;;;;;;;7.53;1.75;;;;;;;;;;5033111;28;20124;-94
2021/10/29 11:23:03;;;;;;;5.17;2.77;;;;;;;;;;5064831;28;20049;-94
2021/10/29 11:25:46;;;;;;;3.83;1.25;;;;;;;;;;5065270;28;20320;-94
2021/10/29 11:28:11;;;;;;;4.93;2.70;;;;;;;;;;5045163;28;20078;-94
2021/10/29 11:30:40;;;;;;;4.72;1.63;;;;;;;;;;5034998;28;20021;-94
2021/10/29 11:33:06;;;;;;;4.25;2.20;;;;;;;;;;5029964;28;20041;-93
2021/10/29 11:35:31;;;;;;;4.60;2.40;;;;;;;;;;5032734;28;20018;-95
2021/10/29 11:37:56;;;;;;;4.78;2.05;;;;;;;;;;5046370;28;20478;-94
2021/10/29 11:40:22;;;;;;;3.67;1.73;;;;;;;;;;5054031;28;20037;-94
2021/10/29 11:42:54;;;;;;;3.83;1.90;;;;;;;;;;5023837;28;20036;-94
2021/10/29 11:45:34;;;;;;;9.95;2.30;;;;;;;;;;5032972;28;20021;-94
2021/10/29 11:47:59;;;;;;;5.55;1.70;;;;;;;;;;5033250;28;20052;-93
2021/10/29 11:50:25;;;;;;;4.82;2.50;;;;;;;;;;5032862;28;20025;-93
2021/10/29 11:52:50;;;;;;;0.85;0.55;;;;;;;;;;5042160;28;20017;-93
2021/10/29 11:55:27;;;;;;;4.97;2.45;;;;;;;;;;5032816;28;20017;-93
2021/10/29 11:58:01;;;;;;;5.95;2.60;;;;;;;;;;5032787;28;20037;-94
2021/10/29 12:01:16;;;;;;;5.00;2.20;;;;;;;;;;5032872;28;20044;-94
2021/10/29 12:07:13;;;;;;;2.00;1.25;;;;;;;;;;5034054;28;20153;-94
2021/10/29 12:08:47;;;;;;;5.30;2.00;;;;;;;;;;5025482;28;20033;-95
2021/10/29 12:11:18;;;;;;;6.60;2.33;;;;;;;;;;5030742;28;20019;-94
2021/10/29 12:13:43;;;;;;;11.00;2.40;;;;;;;;;;5032790;28;20520;-93
2021/10/29 12:16:16;;;;;;;4.03;2.10;;;;;;;;;;5032742;28;20037;-94
2021/10/29 12:18:53;;;;;;;1.42;0.57;;;;;;;;;;5019837;28;20014;-93
2021/10/29 12:21:20;;;;;;;4.70;2.17;;;;;;;;;;5032291;28;20045;-94
2021/10/29 12:23:50;;;;;;;7.57;1.00;;;;;;;;;;5059380;28;20105;-95
2021/10/29 12:26:21;;;;;;;5.22;1.88;;;;;;;;;;5026151;28;20362;-94
2021/10/29 12:28:48;;;;;;;5.95;2.30;;;;;;;;;;5032486;28;20052;-94
2021/10/29 12:51:55;;;;;;;6.43;2.40;;;;;;;;;;5037135;28;20025;-94
2021/10/29 13:01:58;;;;;;;0.93;0.57;;;;;;;;;;5024581;28;20385;-93
2021/10/29 13:04:46;;;;;;;3.47;1.50;;;;;;;;;;5035900;28;20362;-94
2021/10/29 13:07:12;;;;;;;7.25;2.15;;;;;;;;;;5035822;28;20032;-94
2021/10/29 13:09:38;;;;;;;5.05;2.47;;;;;;;;;;5035545;28;20026;-94
2021/10/29 13:12:11;;;;;;;10.77;2.90;;;;;;;;;;5032435;28;20022;-94
2021/10/29 13:14:42;;;;;;;6.22;1.50;;;;;;;;;;5031856;28;20017;-93
2021/10/29 13:17:12;;;;;;;4.43;1.83;;;;;;;;;;5068960;28;20488;-94
2021/10/29 13:25:38;;;;;;;8.10;2.90;;;;;;;;;;5036767;28;20021;-94
2021/10/29 13:36:23;;;;;;;5.68;2.50;;;;;;;;;;5015276;28;20053;-93
2021/10/29 14:30:13;;;;;;;8.82;2.55;;;;;;;;;;5013857;28;20049;-94
2021/10/29 14:35:16;;;;;;;9.07;2.70;;;;;;;;;;5021612;28;20025;-93
2021/10/29 14:48:04;;;;;;;6.00;2.13;;;;;;;;;;5035106;28;20013;-94
2021/10/29 15:04:09;;;;;;;2.97;1.50;;;;;;;;;;5033885;28;20029;-94
2021/10/29 15:43:53;;;;;;;12.43;3.45;;;;;;;;;;5035132;28;20457;-93
2021/10/29 15:51:42;;;;;;;11.77;3.88;;;;;;;;;;5033796;28;20017;-92
2021/10/29 15:54:10;;;;;;;5.63;3.38;;;;;;;;;;5057704;28;20045;-92
2021/10/29 16:17:53;;;;;;;7.03;3.55;;;;;;;;;;5037667;28;20432;-93
2021/10/29 16:20:19;;;;;;;13.75;4.57;;;;;;;;;;5036345;28;20022;-92
2021/10/29 16:22:44;;;;;;;8.25;3.78;;;;;;;;;;5037512;28;20017;-93
2021/10/29 16:25:13;;;;;;;6.53;3.83;;;;;;;;;;5037593;28;20021;-92
2021/10/29 16:30:04;;;;;;;8.45;4.72;;;;;;;;;;5037174;28;20030;-92
2021/10/29 16:32:51;;;;;;;6.15;3.78;;;;;;;;;;5035516;28;20052;-93
2021/10/29 16:35:16;;;;;;;8.50;4.20;;;;;;;;;;5036484;28;20028;-93
2021/10/29 16:37:41;;;;;;;11.00;4.65;;;;;;;;;;5046210;28;20032;-93
2021/10/29 16:40:07;;;;;;;12.70;3.90;;;;;;;;;;5037479;28;20025;-92
2021/10/29 16:42:32;;;;;;;11.07;4.45;;;;;;;;;;5040392;28;20021;-93
2021/10/29 16:44:57;;;;;;;11.05;4.80;;;;;;;;;;5042043;28;20022;-92
2021/10/29 16:47:22;;;;;;;10.35;4.53;;;;;;;;;;5035018;28;20101;-91
2021/10/29 16:49:48;;;;;;;10.80;4.97;;;;;;;;;;5039360;28;20047;-93
2021/10/29 16:52:13;;;;;;;9.25;5.00;;;;;;;;;;5038493;28;20013;-92
2021/10/29 16:54:38;;;;;;;11.00;4.95;;;;;;;;;;5068679;28;20020;-90
2021/10/29 16:57:04;;;;;;;12.45;5.30;;;;;;;;;;5034815;28;20385;-90
2021/10/29 16:59:29;;;;;;;16.25;7.22;;;;;;;;;;5034351;28;20013;-90
2021/10/29 17:01:54;;;;;;;14.93;6.40;;;;;;;;;;5031982;28;20040;-91
2021/10/29 17:04:19;;;;;;;11.85;5.38;;;;;;;;;;5034971;28;20022;-90
2021/10/29 17:06:44;;;;;;;18.83;7.90;;;;;;;;;;5031857;28;20535;-90
2021/10/29 17:09:10;;;;;;;9.45;4.38;;;;;;;;;;5041702;28;20452;-90
2021/10/29 17:11:35;;;;;;;8.70;4.43;;;;;;;;;;5034789;28;20017;-90
2021/10/29 17:14:03;;;;;;;9.23;4.63;;;;;;;;;;5034875;28;20025;-90
2021/10/29 17:16:29;;;;;;;8.52;3.97;;;;;;;;;;5069372;28;20033;-91
2021/10/29 17:18:54;;;;;;;10.07;4.53;;;;;;;;;;5072001;28;20083;-90
2021/10/29 17:21:19;;;;;;;11.23;3.92;;;;;;;;;;5039238;28;20037;-90
2021/10/29 17:23:44;;;;;;;7.47;3.83;;;;;;;;;;5034669;28;20021;-90
2021/10/29 17:26:10;;;;;;;8.10;3.70;;;;;;;;;;5067993;28;20389;-90
2021/10/29 17:28:35;;;;;;;8.15;3.97;;;;;;;;;;5021712;28;20449;-90
2021/10/29 17:31:00;;;;;;;9.70;3.25;;;;;;;;;;5034554;28;20021;-90
2021/10/29 17:33:25;;;;;;;8.65;3.85;;;;;;;;;;5034185;28;20537;-89
2021/10/29 17:35:51;;;;;;;6.75;3.72;;;;;;;;;;5036336;28;20022;-90
2021/10/29 17:38:16;;;;;;;6.63;4.03;;;;;;;;;;5035350;28;20677;-90
2021/10/29 17:40:42;;;;;;;7.07;4.18;;;;;;;;;;5065902;28;20067;-90
2021/10/29 17:43:07;;;;;;;10.32;4.53;;;;;;;;;;5034436;28;20377;-90
2021/10/29 17:45:33;;;;;;;7.82;4.47;;;;;;;;;;5034047;28;20489;-90
2021/10/29 17:47:58;;;;;;;10.68;4.50;;;;;;;;;;5067314;28;20026;-89
2021/10/29 17:50:23;;;;;;;10.77;3.65;;;;;;;;;;5033828;28;20100;-90
2021/10/29 17:52:51;;;;;;;8.88;3.80;;;;;;;;;;5033995;28;20044;-90
2021/10/29 17:55:17;;;;;;;14.60;4.50;;;;;;;;;;5035125;28;20654;-90
2021/10/29 17:57:43;;;;;;;8.20;4.50;;;;;;;;;;5034217;28;20021;-90
2021/10/29 18:00:09;;;;;;;5.55;3.90;;;;;;;;;;5033807;28;20025;-90
2021/10/29 18:02:34;;;;;;;7.53;4.57;;;;;;;;;;5033661;28;20022;-89
2021/10/29 18:04:59;;;;;;;9.23;4.00;;;;;;;;;;5030788;28;20025;-89
2021/10/29 18:07:27;;;;;;;7.95;4.20;;;;;;;;;;5033766;28;20022;-89
2021/10/29 18:09:52;;;;;;;10.55;4.28;;;;;;;;;;5019778;28;20052;-90
2021/10/29 18:12:18;;;;;;;10.35;4.07;;;;;;;;;;5036595;28;20053;-90
2021/10/29 18:14:44;;;;;;;8.50;3.45;;;;;;;;;;5034431;28;20616;-90
2021/10/29 18:17:11;;;;;;;6.88;3.60;;;;;;;;;;5065405;28;20068;-89
2021/10/29 18:19:36;;;;;;;8.15;3.60;;;;;;;;;;5035769;28;20557;-90
2021/10/29 18:22:06;;;;;;;7.43;4.18;;;;;;;;;;5066235;28;20116;-90
2021/10/29 18:24:31;;;;;;;13.00;4.53;;;;;;;;;;5026105;28;20030;-90
2021/10/29 18:26:57;;;;;;;8.30;3.97;;;;;;;;;;5045625;28;20465;-90
2021/10/29 18:29:23;;;;;;;7.43;3.67;;;;;;;;;;5023943;28;20109;-90
2021/10/29 18:31:48;;;;;;;8.13;3.85;;;;;;;;;;5030037;28;20064;-90
2021/10/29 18:34:13;;;;;;;7.97;3.78;;;;;;;;;;5028655;28;20017;-90
2021/10/29 18:36:39;;;;;;;7.30;3.63;;;;;;;;;;5051954;28;20088;-90
2021/10/29 18:39:04;;;;;;;11.52;4.20;;;;;;;;;;5065990;28;20032;-90
2021/10/29 18:41:33;;;;;;;7.78;3.88;;;;;;;;;;5072398;28;20048;-90
2021/10/29 18:43:59;;;;;;;11.15;4.30;;;;;;;;;;5027523;28;20021;-90
2021/10/29 18:46:24;;;;;;;8.93;4.72;;;;;;;;;;5029692;28;20029;-90
2021/10/29 18:48:50;;;;;;;7.30;3.83;;;;;;;;;;5036600;28;20025;-89
2021/10/29 18:51:16;;;;;;;8.32;3.97;;;;;;;;;;5032870;28;20025;-89
2021/10/29 18:53:41;;;;;;;6.85;3.83;;;;;;;;;;5041904;28;20017;-90
2021/10/29 18:56:06;;;;;;;8.50;3.63;;;;;;;;;;5032935;28;20377;-90
2021/10/29 18:58:31;;;;;;;10.07;3.60;;;;;;;;;;5038153;28;20029;-90
2021/10/29 19:00:57;;;;;;;8.63;3.53;;;;;;;;;;5038733;28;20029;-90
2021/10/29 19:03:23;;;;;;;5.72;3.45;;;;;;;;;;5033253;28;20026;-90
2021/10/29 19:05:48;;;;;;;8.25;3.53;;;;;;;;;;5032744;28;20465;-90
2021/10/29 19:08:13;;;;;;;8.25;4.32;;;;;;;;;;5061376;28;20030;-90
2021/10/29 19:10:38;;;;;;;6.80;3.13;;;;;;;;;;5024706;28;20469;-90
2021/10/29 19:13:04;;;;;;;4.82;3.08;;;;;;;;;;5025232;28;20038;-90
2021/10/29 19:15:29;;;;;;;9.25;3.40;;;;;;;;;;5021658;28;20104;-90
2021/10/29 19:17:54;;;;;;;3.95;2.80;;;;;;;;;;5031579;28;20060;-90
2021/10/29 19:20:19;;;;;;;7.50;3.63;;;;;;;;;;5031197;28;20037;-90
2021/10/29 19:22:45;;;;;;;6.70;3.25;;;;;;;;;;5031732;28;20017;-90
2021/10/29 19:25:10;;;;;;;5.72;3.30;;;;;;;;;;5032996;28;20024;-89
2021/10/29 19:27:35;;;;;;;7.72;2.53;;;;;;;;;;5031226;28;20013;-90
2021/10/29 19:30:01;;;;;;;6.97;3.17;;;;;;;;;;5030801;28;20116;-90
2021/10/29 19:32:27;;;;;;;7.00;2.70;;;;;;;;;;5031905;28;20022;-89
2021/10/29 19:34:53;;;;;;;4.35;2.70;;;;;;;;;;5032230;28;20022;-89
2021/10/29 19:37:23;;;;;;;9.85;2.97;;;;;;;;;;5032357;28;20025;-90
2021/10/29 19:42:14;;;;;;;10.48;2.92;;;;;;;;;;5033875;28;20124;-90
2021/10/29 19:44:40;;;;;;;6.00;2.97;;;;;;;;;;5040970;28;20744;-90
2021/10/29 19:47:06;;;;;;;7.18;3.03;;;;;;;;;;5034979;28;20036;-89
2021/10/29 19:49:31;;;;;;;7.68;2.60;;;;;;;;;;5032234;28;20029;-90